sensor_id;sensor_type;location;lat;lon;timestamp;pressure;altitude;pressure_sealevel;temperature;humidity
6020;BME280;3038;51.122;6.840;2024-03-29T00:00:40;99036.25;;;8.88;72.44
6020;BME280;3038;51.122;6.840;2024-03-29T00:03:06;99030.16;;;8.88;72.07
6020;BME280;3038;51.122;6.840;2024-03-29T00:05:35;99023.66;;;8.90;72.28
6020;BME280;3038;51.122;6.840;2024-03-29T00:08:01;99026.13;;;8.92;72.40
6020;BME280;3038;51.122;6.840;2024-03-29T00:10:26;99015.31;;;8.93;72.38
6020;BME280;3038;51.122;6.840;2024-03-29T00:12:52;99011.88;;;8.93;72.63
6020;BME280;3038;51.122;6.840;2024-03-29T00:15:17;99005.38;;;8.95;72.13
6020;BME280;3038;51.122;6.840;2024-03-29T00:17:43;98996.22;;;8.98;71.59
6020;BME280;3038;51.122;6.840;2024-03-29T00:20:08;98993.22;;;9.01;71.73
6020;BME280;3038;51.122;6.840;2024-03-29T00:22:34;98985.72;;;9.05;71.20
6020;BME280;3038;51.122;6.840;2024-03-29T00:25:00;98990.44;;;9.09;71.09
6020;BME280;3038;51.122;6.840;2024-03-29T00:27:25;98992.06;;;9.10;70.94
6020;BME280;3038;51.122;6.840;2024-03-29T00:29:52;98986.31;;;9.07;71.11
6020;BME280;3038;51.122;6.840;2024-03-29T00:32:19;98988.34;;;9.05;71.62
6020;BME280;3038;51.122;6.840;2024-03-29T00:34:44;98990.81;;;9.06;71.31
6020;BME280;3038;51.122;6.840;2024-03-29T00:37:11;98999.34;;;9.08;71.12
6020;BME280;3038;51.122;6.840;2024-03-29T00:39:36;98992.00;;;9.04;71.84
6020;BME280;3038;51.122;6.840;2024-03-29T00:42:02;99003.41;;;9.04;71.29
6020;BME280;3038;51.122;6.840;2024-03-29T00:44:27;98995.44;;;9.04;71.58
6020;BME280;3038;51.122;6.840;2024-03-29T00:46:53;98995.84;;;9.01;72.28
6020;BME280;3038;51.122;6.840;2024-03-29T00:49:18;99009.47;;;8.98;72.11
6020;BME280;3038;51.122;6.840;2024-03-29T00:51:44;99010.09;;;9.00;71.75
6020;BME280;3038;51.122;6.840;2024-03-29T00:54:09;99017.66;;;9.03;71.74
6020;BME280;3038;51.122;6.840;2024-03-29T00:56:35;99016.47;;;9.06;71.70
6020;BME280;3038;51.122;6.840;2024-03-29T00:59:00;99013.97;;;9.04;72.23
6020;BME280;3038;51.122;6.840;2024-03-29T01:01:25;99027.06;;;9.06;71.52
6020;BME280;3038;51.122;6.840;2024-03-29T01:03:51;99009.94;;;9.08;71.46
6020;BME280;3038;51.122;6.840;2024-03-29T01:06:17;98997.97;;;9.12;71.60
6020;BME280;3038;51.122;6.840;2024-03-29T01:08:42;98996.94;;;9.13;71.63
6020;BME280;3038;51.122;6.840;2024-03-29T01:11:08;98996.94;;;9.13;71.72
6020;BME280;3038;51.122;6.840;2024-03-29T01:13:33;98989.22;;;9.12;72.05
6020;BME280;3038;51.122;6.840;2024-03-29T01:15:58;98992.88;;;9.11;72.97
6020;BME280;3038;51.122;6.840;2024-03-29T01:18:24;98992.06;;;9.10;72.35
6020;BME280;3038;51.122;6.840;2024-03-29T01:20:49;99012.22;;;9.11;72.03
6020;BME280;3038;51.122;6.840;2024-03-29T01:23:14;99018.97;;;9.14;72.36
6020;BME280;3038;51.122;6.840;2024-03-29T01:25:40;99027.53;;;9.16;72.59
6020;BME280;3038;51.122;6.840;2024-03-29T01:28:05;99032.47;;;9.19;71.72
6020;BME280;3038;51.122;6.840;2024-03-29T01:30:31;99028.97;;;9.18;72.30
6020;BME280;3038;51.122;6.840;2024-03-29T01:32:56;99029.59;;;9.20;72.75
6020;BME280;3038;51.122;6.840;2024-03-29T01:35:21;99024.75;;;9.24;71.56
6020;BME280;3038;51.122;6.840;2024-03-29T01:37:47;99020.28;;;9.24;71.75
6020;BME280;3038;51.122;6.840;2024-03-29T01:40:12;99028.44;;;9.30;71.64
6020;BME280;3038;51.122;6.840;2024-03-29T01:42:37;99013.81;;;9.34;71.08
6020;BME280;3038;51.122;6.840;2024-03-29T01:45:04;99012.38;;;9.38;70.96
6020;BME280;3038;51.122;6.840;2024-03-29T01:47:29;99013.03;;;9.40;70.95
6020;BME280;3038;51.122;6.840;2024-03-29T01:49:55;98998.38;;;9.44;70.60
6020;BME280;3038;51.122;6.840;2024-03-29T01:52:20;98987.22;;;9.48;70.29
6020;BME280;3038;51.122;6.840;2024-03-29T01:54:47;98976.03;;;9.53;70.46
6020;BME280;3038;51.122;6.840;2024-03-29T01:57:14;98971.13;;;9.57;69.67
6020;BME280;3038;51.122;6.840;2024-03-29T01:59:40;98972.78;;;9.58;69.86
6020;BME280;3038;51.122;6.840;2024-03-29T02:02:08;98976.88;;;9.60;69.82
6020;BME280;3038;51.122;6.840;2024-03-29T02:04:34;98966.50;;;9.65;69.73
6020;BME280;3038;51.122;6.840;2024-03-29T02:07:00;98965.09;;;9.69;69.78
6020;BME280;3038;51.122;6.840;2024-03-29T02:09:25;98941.25;;;9.69;69.56
6020;BME280;3038;51.122;6.840;2024-03-29T02:11:51;98939.41;;;9.70;69.37
6020;BME280;3038;51.122;6.840;2024-03-29T02:14:16;98942.50;;;9.73;68.57
6020;BME280;3038;51.122;6.840;2024-03-29T02:16:41;98948.41;;;9.75;68.90
6020;BME280;3038;51.122;6.840;2024-03-29T02:19:07;98945.75;;;9.75;68.55
6020;BME280;3038;51.122;6.840;2024-03-29T02:21:36;98960.63;;;9.76;68.71
6020;BME280;3038;51.122;6.840;2024-03-29T02:24:08;98940.44;;;9.75;67.54
6020;BME280;3038;51.122;6.840;2024-03-29T02:26:35;98927.19;;;9.75;67.80
6020;BME280;3038;51.122;6.840;2024-03-29T02:29:07;98941.09;;;9.77;68.10
6020;BME280;3038;51.122;6.840;2024-03-29T02:31:32;98937.41;;;9.78;68.38
6020;BME280;3038;51.122;6.840;2024-03-29T02:33:58;98930.28;;;9.79;68.79
6020;BME280;3038;51.122;6.840;2024-03-29T02:36:23;98938.22;;;9.79;68.42
6020;BME280;3038;51.122;6.840;2024-03-29T02:38:48;98943.53;;;9.79;69.22
6020;BME280;3038;51.122;6.840;2024-03-29T02:41:14;98932.72;;;9.81;68.60
6020;BME280;3038;51.122;6.840;2024-03-29T02:43:39;98937.03;;;9.82;68.47
6020;BME280;3038;51.122;6.840;2024-03-29T02:46:05;98945.59;;;9.84;68.99
6020;BME280;3038;51.122;6.840;2024-03-29T02:48:30;98942.72;;;9.85;67.93
6020;BME280;3038;51.122;6.840;2024-03-29T02:50:55;98932.53;;;9.89;67.78
6020;BME280;3038;51.122;6.840;2024-03-29T02:53:21;98939.47;;;9.90;68.56
6020;BME280;3038;51.122;6.840;2024-03-29T02:55:46;98938.66;;;9.89;68.25
6020;BME280;3038;51.122;6.840;2024-03-29T02:58:11;98946.03;;;9.94;68.24
6020;BME280;3038;51.122;6.840;2024-03-29T03:00:37;98944.41;;;9.93;69.20
6020;BME280;3038;51.122;6.840;2024-03-29T03:03:02;98938.66;;;9.96;69.31
6020;BME280;3038;51.122;6.840;2024-03-29T03:05:29;98930.50;;;9.91;70.80
6020;BME280;3038;51.122;6.840;2024-03-29T03:07:54;98933.56;;;9.88;70.78
6020;BME280;3038;51.122;6.840;2024-03-29T03:10:47;98935.78;;;9.84;71.65
6020;BME280;3038;51.122;6.840;2024-03-29T03:13:24;98945.59;;;9.84;71.10
6020;BME280;3038;51.122;6.840;2024-03-29T03:15:49;98932.53;;;9.82;71.37
6020;BME280;3038;51.122;6.840;2024-03-29T03:18:15;98932.53;;;9.82;71.56
6020;BME280;3038;51.122;6.840;2024-03-29T03:20:40;98923.13;;;9.79;71.44
6020;BME280;3038;51.122;6.840;2024-03-29T03:23:06;98921.50;;;9.78;71.08
6020;BME280;3038;51.122;6.840;2024-03-29T03:25:31;98921.50;;;9.78;71.49
6020;BME280;3038;51.122;6.840;2024-03-29T03:27:56;98906.63;;;9.77;71.43
6020;BME280;3038;51.122;6.840;2024-03-29T03:30:22;98912.91;;;9.76;71.27
6020;BME280;3038;51.122;6.840;2024-03-29T03:32:47;98907.22;;;9.79;71.24
6020;BME280;3038;51.122;6.840;2024-03-29T03:35:13;98912.75;;;9.78;70.96
6020;BME280;3038;51.122;6.840;2024-03-29T03:37:39;98904.97;;;9.76;71.63
6020;BME280;3038;51.122;6.840;2024-03-29T03:40:05;98905.19;;;9.75;71.47
6020;BME280;3038;51.122;6.840;2024-03-29T03:42:31;98903.97;;;9.77;71.18
6020;BME280;3038;51.122;6.840;2024-03-29T03:44:56;98910.28;;;9.76;71.51
6020;BME280;3038;51.122;6.840;2024-03-29T03:47:21;98912.53;;;9.73;70.96
6020;BME280;3038;51.122;6.840;2024-03-29T03:49:47;98916.59;;;9.75;70.97
6020;BME280;3038;51.122;6.840;2024-03-29T03:52:12;98902.13;;;9.78;70.38
6020;BME280;3038;51.122;6.840;2024-03-29T03:54:38;98910.09;;;9.78;70.58
6020;BME280;3038;51.122;6.840;2024-03-29T03:57:04;98915.41;;;9.78;69.76
6020;BME280;3038;51.122;6.840;2024-03-29T03:59:29;98921.50;;;9.78;69.44
6020;BME280;3038;51.122;6.840;2024-03-29T04:01:55;98924.38;;;9.77;69.72
6020;BME280;3038;51.122;6.840;2024-03-29T04:04:20;98916.22;;;9.78;69.51
6020;BME280;3038;51.122;6.840;2024-03-29T04:06:46;98925.19;;;9.77;69.69
6020;BME280;3038;51.122;6.840;2024-03-29T04:09:14;98937.41;;;9.78;68.99
6020;BME280;3038;51.122;6.840;2024-03-29T04:11:41;98923.13;;;9.79;69.08
6020;BME280;3038;51.122;6.840;2024-03-29T04:14:06;98916.00;;;9.80;68.89
6020;BME280;3038;51.122;6.840;2024-03-29T04:16:32;98910.69;;;9.80;68.66
6020;BME280;3038;51.122;6.840;2024-03-29T04:18:57;98906.03;;;9.82;68.34
6020;BME280;3038;51.122;6.840;2024-03-29T04:21:22;98905.81;;;9.84;68.38
6020;BME280;3038;51.122;6.840;2024-03-29T04:23:48;98899.50;;;9.85;68.14
6020;BME280;3038;51.122;6.840;2024-03-29T04:26:13;98890.53;;;9.86;68.20
6020;BME280;3038;51.122;6.840;2024-03-29T04:28:38;98899.50;;;9.85;68.98
6020;BME280;3038;51.122;6.840;2024-03-29T04:31:04;98909.50;;;9.83;69.94
6020;BME280;3038;51.122;6.840;2024-03-29T04:33:29;98907.22;;;9.79;71.30
6020;BME280;3038;51.122;6.840;2024-03-29T04:36:02;98913.13;;;9.75;71.78
6020;BME280;3038;51.122;6.840;2024-03-29T04:38:28;98913.53;;;9.72;72.63
6020;BME280;3038;51.122;6.840;2024-03-29T04:40:55;98906.56;;;9.64;73.88
6020;BME280;3038;51.122;6.840;2024-03-29T04:43:23;98913.28;;;9.60;74.58
6020;BME280;3038;51.122;6.840;2024-03-29T04:45:48;98898.19;;;9.54;74.66
6020;BME280;3038;51.122;6.840;2024-03-29T04:48:14;98894.09;;;9.51;74.74
6020;BME280;3038;51.122;6.840;2024-03-29T04:50:39;98883.09;;;9.48;75.80
6020;BME280;3038;51.122;6.840;2024-03-29T04:53:07;98894.06;;;9.45;76.38
6020;BME280;3038;51.122;6.840;2024-03-29T04:55:33;98904.44;;;9.40;77.13
6020;BME280;3038;51.122;6.840;2024-03-29T04:57:59;98891.56;;;9.37;78.54
6020;BME280;3038;51.122;6.840;2024-03-29T05:00:24;98884.22;;;9.32;78.88
6020;BME280;3038;51.122;6.840;2024-03-29T05:02:50;98883.19;;;9.26;79.04
6020;BME280;3038;51.122;6.840;2024-03-29T05:05:15;98875.66;;;9.23;79.73
6020;BME280;3038;51.122;6.840;2024-03-29T05:07:41;98874.00;;;9.22;80.56
6020;BME280;3038;51.122;6.840;2024-03-29T05:10:07;98860.34;;;9.19;80.47
6020;BME280;3038;51.122;6.840;2024-03-29T05:12:34;98868.28;;;9.19;80.98
6020;BME280;3038;51.122;6.840;2024-03-29T05:15:00;98874.78;;;9.16;81.17
6020;BME280;3038;51.122;6.840;2024-03-29T05:17:25;98876.41;;;9.17;80.91
6020;BME280;3038;51.122;6.840;2024-03-29T05:19:55;98873.53;;;9.12;80.90
6020;BME280;3038;51.122;6.840;2024-03-29T05:22:20;98879.25;;;9.09;81.54
6020;BME280;3038;51.122;6.840;2024-03-29T05:24:46;98882.88;;;9.08;82.70
6020;BME280;3038;51.122;6.840;2024-03-29T05:27:12;98876.75;;;9.08;82.92
6020;BME280;3038;51.122;6.840;2024-03-29T05:29:37;98864.13;;;9.03;83.29
6020;BME280;3038;51.122;6.840;2024-03-29T05:32:06;98876.75;;;9.01;84.02
6020;BME280;3038;51.122;6.840;2024-03-29T05:34:31;98875.13;;;9.00;84.83
6020;BME280;3038;51.122;6.840;2024-03-29T05:36:57;98884.69;;;9.01;84.25
6020;BME280;3038;51.122;6.840;2024-03-29T05:39:22;98896.22;;;8.93;86.00
6020;BME280;3038;51.122;6.840;2024-03-29T05:41:47;98902.31;;;8.87;87.35
6020;BME280;3038;51.122;6.840;2024-03-29T05:44:13;98897.22;;;8.86;88.06
6020;BME280;3038;51.122;6.840;2024-03-29T05:46:38;98877.44;;;8.82;88.84
6020;BME280;3038;51.122;6.840;2024-03-29T05:49:05;98868.44;;;8.76;89.45
6020;BME280;3038;51.122;6.840;2024-03-29T05:51:30;98870.03;;;8.70;90.40
6020;BME280;3038;51.122;6.840;2024-03-29T05:53:56;98871.59;;;8.65;91.45
6020;BME280;3038;51.122;6.840;2024-03-29T05:56:21;98873.28;;;8.66;92.49
6020;BME280;3038;51.122;6.840;2024-03-29T05:58:47;98863.88;;;8.63;92.66
6020;BME280;3038;51.122;6.840;2024-03-29T06:01:12;98850.41;;;8.58;93.40
6020;BME280;3038;51.122;6.840;2024-03-29T06:03:38;98857.72;;;8.56;94.98
6020;BME280;3038;51.122;6.840;2024-03-29T06:06:04;98864.81;;;8.56;95.99
6020;BME280;3038;51.122;6.840;2024-03-29T06:08:29;98859.38;;;8.57;95.90
6020;BME280;3038;51.122;6.840;2024-03-29T06:10:54;98866.28;;;8.58;97.01
6020;BME280;3038;51.122;6.840;2024-03-29T06:13:20;98851.03;;;8.60;96.99
6020;BME280;3038;51.122;6.840;2024-03-29T06:16:14;98867.13;;;8.65;96.13
6020;BME280;3038;51.122;6.840;2024-03-29T06:18:58;98867.41;;;8.70;97.30
6020;BME280;3038;51.122;6.840;2024-03-29T06:21:23;98866.19;;;8.73;96.97
6020;BME280;3038;51.122;6.840;2024-03-29T06:23:49;98867.22;;;8.79;96.52
6020;BME280;3038;51.122;6.840;2024-03-29T06:26:14;98872.97;;;8.82;96.45
6020;BME280;3038;51.122;6.840;2024-03-29T06:28:40;98865.25;;;8.87;96.59
6020;BME280;3038;51.122;6.840;2024-03-29T06:31:05;98877.91;;;8.92;97.05
6020;BME280;3038;51.122;6.840;2024-03-29T06:33:30;98881.59;;;8.97;97.26
6020;BME280;3038;51.122;6.840;2024-03-29T06:35:56;98878.97;;;9.04;97.19
6020;BME280;3038;51.122;6.840;2024-03-29T06:38:21;98888.81;;;9.10;96.88
6020;BME280;3038;51.122;6.840;2024-03-29T06:40:46;98872.34;;;9.15;96.12
6020;BME280;3038;51.122;6.840;2024-03-29T06:43:13;98875.22;;;9.20;96.25
6020;BME280;3038;51.122;6.840;2024-03-29T06:45:41;98872.59;;;9.26;95.89
6020;BME280;3038;51.122;6.840;2024-03-29T06:48:10;98876.72;;;9.36;95.01
6020;BME280;3038;51.122;6.840;2024-03-29T06:50:36;98894.06;;;9.38;95.79
6020;BME280;3038;51.122;6.840;2024-03-29T06:53:02;98892.44;;;9.44;94.98
6020;BME280;3038;51.122;6.840;2024-03-29T06:55:27;98888.19;;;9.56;95.15
6020;BME280;3038;51.122;6.840;2024-03-29T06:57:53;98883.53;;;9.58;95.34
6020;BME280;3038;51.122;6.840;2024-03-29T07:00:18;98877.84;;;9.68;95.31
6020;BME280;3038;51.122;6.840;2024-03-29T07:02:43;98894.38;;;9.76;95.26
6020;BME280;3038;51.122;6.840;2024-03-29T07:05:10;98875.84;;;9.90;94.71
6020;BME280;3038;51.122;6.840;2024-03-29T07:07:37;98882.41;;;9.94;95.59
6020;BME280;3038;51.122;6.840;2024-03-29T07:10:03;98886.28;;;9.98;94.98
6020;BME280;3038;51.122;6.840;2024-03-29T07:12:28;98889.53;;;10.00;96.15
6020;BME280;3038;51.122;6.840;2024-03-29T07:14:53;98886.09;;;10.06;95.13
6020;BME280;3038;51.122;6.840;2024-03-29T07:17:19;98893.06;;;10.20;95.17
6020;BME280;3038;51.122;6.840;2024-03-29T07:19:44;98888.00;;;10.25;95.05
6020;BME280;3038;51.122;6.840;2024-03-29T07:22:09;98894.13;;;10.33;94.08
6020;BME280;3038;51.122;6.840;2024-03-29T07:24:35;98899.22;;;10.41;94.70
6020;BME280;3038;51.122;6.840;2024-03-29T07:27:00;98892.91;;;10.55;93.83
6020;BME280;3038;51.122;6.840;2024-03-29T07:29:25;98895.94;;;10.72;92.67
6020;BME280;3038;51.122;6.840;2024-03-29T07:31:51;98916.38;;;10.71;93.53
6020;BME280;3038;51.122;6.840;2024-03-29T07:34:16;98913.50;;;10.79;93.64
6020;BME280;3038;51.122;6.840;2024-03-29T07:36:42;98913.50;;;10.79;92.49
6020;BME280;3038;51.122;6.840;2024-03-29T07:39:07;98913.72;;;10.85;92.59
6020;BME280;3038;51.122;6.840;2024-03-29T07:41:33;98923.09;;;10.87;92.75
6020;BME280;3038;51.122;6.840;2024-03-29T07:43:58;98927.38;;;10.95;92.13
6020;BME280;3038;51.122;6.840;2024-03-29T07:46:32;98927.34;;;11.01;92.50
6020;BME280;3038;51.122;6.840;2024-03-29T07:48:57;98926.75;;;11.06;92.84
6020;BME280;3038;51.122;6.840;2024-03-29T07:51:23;98928.59;;;11.05;93.43
6020;BME280;3038;51.122;6.840;2024-03-29T07:53:48;98925.72;;;11.07;93.84
6020;BME280;3038;51.122;6.840;2024-03-29T07:56:14;98930.22;;;11.13;93.66
6020;BME280;3038;51.122;6.840;2024-03-29T07:58:39;98934.47;;;11.21;92.84
6020;BME280;3038;51.122;6.840;2024-03-29T08:01:04;98923.22;;;11.32;92.87
6020;BME280;3038;51.122;6.840;2024-03-29T08:03:31;98925.03;;;11.38;92.50
6020;BME280;3038;51.122;6.840;2024-03-29T08:08:25;98934.41;;;11.47;92.98
6020;BME280;3038;51.122;6.840;2024-03-29T08:10:52;98932.16;;;11.51;92.61
6020;BME280;3038;51.122;6.840;2024-03-29T08:13:18;98933.78;;;11.52;93.05
6020;BME280;3038;51.122;6.840;2024-03-29T08:15:46;98932.34;;;11.56;92.78
6020;BME280;3038;51.122;6.840;2024-03-29T08:18:11;98935.19;;;11.54;93.10
6020;BME280;3038;51.122;6.840;2024-03-29T08:20:37;98937.44;;;11.57;93.14
6020;BME280;3038;51.122;6.840;2024-03-29T08:23:03;98941.31;;;11.62;93.35
6020;BME280;3038;51.122;6.840;2024-03-29T08:25:28;98930.06;;;11.66;93.34
6020;BME280;3038;51.122;6.840;2024-03-29T08:27:53;98928.00;;;11.68;93.00
6020;BME280;3038;51.122;6.840;2024-03-29T08:30:24;98927.94;;;11.81;92.83
6020;BME280;3038;51.122;6.840;2024-03-29T08:32:50;98927.81;;;12.15;92.31
6020;BME280;3038;51.122;6.840;2024-03-29T08:35:17;98918.31;;;12.25;91.68
6020;BME280;3038;51.122;6.840;2024-03-29T08:37:42;98923.84;;;12.24;91.64
6020;BME280;3038;51.122;6.840;2024-03-29T08:40:08;98923.63;;;12.25;91.36
6020;BME280;3038;51.122;6.840;2024-03-29T08:42:33;98920.56;;;12.28;91.12
6020;BME280;3038;51.122;6.840;2024-03-29T08:45:02;98919.91;;;12.33;91.84
6020;BME280;3038;51.122;6.840;2024-03-29T08:47:28;98919.25;;;12.38;90.90
6020;BME280;3038;51.122;6.840;2024-03-29T08:49:54;98940.28;;;12.46;90.01
6020;BME280;3038;51.122;6.840;2024-03-29T08:52:19;98949.63;;;12.55;90.21
6020;BME280;3038;51.122;6.840;2024-03-29T08:54:44;98958.19;;;12.64;89.70
6020;BME280;3038;51.122;6.840;2024-03-29T08:57:10;98955.47;;;12.70;89.14
6020;BME280;3038;51.122;6.840;2024-03-29T08:59:35;98966.59;;;12.85;88.50
6020;BME280;3038;51.122;6.840;2024-03-29T09:02:05;98957.47;;;13.00;87.27
6020;BME280;3038;51.122;6.840;2024-03-29T09:04:32;98967.34;;;13.18;85.85
6020;BME280;3038;51.122;6.840;2024-03-29T09:07:01;98975.28;;;13.24;85.57
6020;BME280;3038;51.122;6.840;2024-03-29T09:09:31;98973.63;;;13.30;85.45
6020;BME280;3038;51.122;6.840;2024-03-29T09:11:56;98976.38;;;13.42;84.81
6020;BME280;3038;51.122;6.840;2024-03-29T09:14:22;98974.81;;;13.52;84.11
6020;BME280;3038;51.122;6.840;2024-03-29T09:16:47;98965.06;;;13.65;84.11
6020;BME280;3038;51.122;6.840;2024-03-29T09:19:14;98962.00;;;13.79;82.66
6020;BME280;3038;51.122;6.840;2024-03-29T09:21:40;98949.34;;;14.05;82.67
6020;BME280;3038;51.122;6.840;2024-03-29T09:24:05;98955.84;;;14.27;82.75
6020;BME280;3038;51.122;6.840;2024-03-29T09:26:32;98946.50;;;14.48;80.95
6020;BME280;3038;51.122;6.840;2024-03-29T09:28:57;98954.47;;;14.78;81.29
6020;BME280;3038;51.122;6.840;2024-03-29T09:31:22;98960.75;;;14.96;79.94
6020;BME280;3038;51.122;6.840;2024-03-29T09:33:48;98952.75;;;15.19;79.93
6020;BME280;3038;51.122;6.840;2024-03-29T09:36:19;98963.06;;;15.51;78.41
6020;BME280;3038;51.122;6.840;2024-03-29T09:38:45;98969.22;;;15.75;75.61
6020;BME280;3038;51.122;6.840;2024-03-29T09:41:14;98974.34;;;15.76;75.78
6020;BME280;3038;51.122;6.840;2024-03-29T09:43:41;98974.09;;;15.78;76.60
6020;BME280;3038;51.122;6.840;2024-03-29T09:46:08;98979.09;;;15.74;76.09
6020;BME280;3038;51.122;6.840;2024-03-29T09:48:34;98966.69;;;15.68;74.99
6020;BME280;3038;51.122;6.840;2024-03-29T09:51:05;98967.00;;;15.60;75.91
6020;BME280;3038;51.122;6.840;2024-03-29T09:53:32;98969.44;;;15.61;76.08
6020;BME280;3038;51.122;6.840;2024-03-29T09:56:00;98973.06;;;15.55;74.45
6020;BME280;3038;51.122;6.840;2024-03-29T09:58:25;98972.25;;;15.55;72.62
6020;BME280;3038;51.122;6.840;2024-03-29T10:00:51;98969.59;;;15.66;71.42
6020;BME280;3038;51.122;6.840;2024-03-29T10:03:16;98971.38;;;15.89;70.95
6020;BME280;3038;51.122;6.840;2024-03-29T10:05:46;98989.50;;;16.11;71.81
6020;BME280;3038;51.122;6.840;2024-03-29T10:08:13;98992.06;;;16.06;72.25
6020;BME280;3038;51.122;6.840;2024-03-29T10:10:40;98993.69;;;16.07;71.89
6020;BME280;3038;51.122;6.840;2024-03-29T10:13:06;98989.25;;;16.12;70.82
6020;BME280;3038;51.122;6.840;2024-03-29T10:15:31;98991.41;;;16.27;69.77
6020;BME280;3038;51.122;6.840;2024-03-29T10:18:02;98989.16;;;16.36;69.51
6020;BME280;3038;51.122;6.840;2024-03-29T10:20:28;98991.84;;;16.24;68.28
6020;BME280;3038;51.122;6.840;2024-03-29T10:22:53;98995.03;;;16.21;67.98
6020;BME280;3038;51.122;6.840;2024-03-29T10:25:20;98992.81;;;16.18;68.17
6020;BME280;3038;51.122;6.840;2024-03-29T10:27:46;99005.66;;;16.04;69.08
6020;BME280;3038;51.122;6.840;2024-03-29T10:30:11;99002.19;;;16.04;69.67
6020;BME280;3038;51.122;6.840;2024-03-29T10:32:42;99004.66;;;15.93;69.52
6020;BME280;3038;51.122;6.840;2024-03-29T10:35:08;98995.16;;;15.74;68.35
6020;BME280;3038;51.122;6.840;2024-03-29T10:37:35;98995.25;;;15.56;67.85
6020;BME280;3038;51.122;6.840;2024-03-29T10:40:13;98998.53;;;15.58;68.69
6020;BME280;3038;51.122;6.840;2024-03-29T10:42:41;98992.94;;;15.59;68.21
6020;BME280;3038;51.122;6.840;2024-03-29T10:45:07;98990.16;;;15.78;68.30
6020;BME280;3038;51.122;6.840;2024-03-29T10:47:33;98992.53;;;16.03;66.26
6020;BME280;3038;51.122;6.840;2024-03-29T10:49:59;98985.47;;;16.54;65.16
6020;BME280;3038;51.122;6.840;2024-03-29T10:52:25;98998.19;;;16.75;64.35
6020;BME280;3038;51.122;6.840;2024-03-29T10:54:54;99002.16;;;17.23;62.44
6020;BME280;3038;51.122;6.840;2024-03-29T10:57:24;99012.97;;;16.94;61.41
6020;BME280;3038;51.122;6.840;2024-03-29T11:00:05;99005.06;;;17.38;60.62
6020;BME280;3038;51.122;6.840;2024-03-29T11:05:22;98997.28;;;17.37;59.61
6020;BME280;3038;51.122;6.840;2024-03-29T11:07:50;99000.03;;;17.25;60.68
6020;BME280;3038;51.122;6.840;2024-03-29T11:10:35;98996.91;;;17.50;58.84
6020;BME280;3038;51.122;6.840;2024-03-29T11:16:04;99000.91;;;17.86;57.43
6020;BME280;3038;51.122;6.840;2024-03-29T11:18:30;99006.53;;;18.07;57.48
6020;BME280;3038;51.122;6.840;2024-03-29T11:20:59;99004.28;;;17.98;55.31
6020;BME280;3038;51.122;6.840;2024-03-29T11:23:27;99005.47;;;17.69;56.18
6020;BME280;3038;51.122;6.840;2024-03-29T11:25:54;99018.78;;;17.76;57.57
6020;BME280;3038;51.122;6.840;2024-03-29T11:28:30;99017.78;;;17.26;56.05
6020;BME280;3038;51.122;6.840;2024-03-29T11:31:00;99018.81;;;16.91;57.49
6020;BME280;3038;51.122;6.840;2024-03-29T11:33:27;99021.09;;;17.00;58.68
6020;BME280;3038;51.122;6.840;2024-03-29T11:35:53;99022.72;;;17.01;57.47
6020;BME280;3038;51.122;6.840;2024-03-29T11:38:19;99030.28;;;17.04;57.53
6020;BME280;3038;51.122;6.840;2024-03-29T11:40:54;99034.03;;;17.03;57.39
6020;BME280;3038;51.122;6.840;2024-03-29T11:43:20;99022.56;;;16.90;58.17
6020;BME280;3038;51.122;6.840;2024-03-29T11:45:48;99008.00;;;16.86;57.77
6020;BME280;3038;51.122;6.840;2024-03-29T11:48:21;99008.34;;;16.73;57.88
6020;BME280;3038;51.122;6.840;2024-03-29T11:50:48;99019.69;;;16.80;58.44
6020;BME280;3038;51.122;6.840;2024-03-29T11:53:13;99033.13;;;16.97;58.83
6020;BME280;3038;51.122;6.840;2024-03-29T11:55:39;99043.34;;;17.00;58.90
6020;BME280;3038;51.122;6.840;2024-03-29T11:58:04;99044.66;;;17.14;58.28
6020;BME280;3038;51.122;6.840;2024-03-29T12:00:29;99047.00;;;17.11;57.58
6020;BME280;3038;51.122;6.840;2024-03-29T12:02:56;99062.94;;;17.01;58.64
6020;BME280;3038;51.122;6.840;2024-03-29T12:05:22;99074.16;;;16.98;59.61
6020;BME280;3038;51.122;6.840;2024-03-29T12:07:48;99083.88;;;16.87;60.56
6020;BME280;3038;51.122;6.840;2024-03-29T12:10:14;99069.63;;;16.58;60.06
6020;BME280;3038;51.122;6.840;2024-03-29T12:12:39;99073.19;;;16.47;59.93
6020;BME280;3038;51.122;6.840;2024-03-29T12:15:07;99076.22;;;16.38;60.09
6020;BME280;3038;51.122;6.840;2024-03-29T12:17:33;99082.75;;;16.42;60.24
6020;BME280;3038;51.122;6.840;2024-03-29T12:19:59;99102.41;;;16.48;59.01
6020;BME280;3038;51.122;6.840;2024-03-29T12:22:31;99103.13;;;16.43;59.59
6020;BME280;3038;51.122;6.840;2024-03-29T12:24:56;99110.50;;;16.36;60.35
6020;BME280;3038;51.122;6.840;2024-03-29T12:27:22;99104.13;;;16.26;59.08
6020;BME280;3038;51.122;6.840;2024-03-29T12:29:50;99104.94;;;16.26;60.06
6020;BME280;3038;51.122;6.840;2024-03-29T12:32:19;99096.69;;;16.16;61.03
6020;BME280;3038;51.122;6.840;2024-03-29T12:34:45;99108.81;;;16.07;61.79
6020;BME280;3038;51.122;6.840;2024-03-29T12:37:10;99095.88;;;16.04;62.25
6020;BME280;3038;51.122;6.840;2024-03-29T12:39:36;99102.31;;;15.91;62.84
6020;BME280;3038;51.122;6.840;2024-03-29T12:42:04;99106.28;;;15.77;63.63
6020;BME280;3038;51.122;6.840;2024-03-29T12:44:30;99100.31;;;15.63;64.84
6020;BME280;3038;51.122;6.840;2024-03-29T12:46:57;99104.41;;;15.65;65.67
6020;BME280;3038;51.122;6.840;2024-03-29T12:49:24;99111.41;;;15.66;66.50
6020;BME280;3038;51.122;6.840;2024-03-29T12:51:50;99106.38;;;15.70;65.94
6020;BME280;3038;51.122;6.840;2024-03-29T12:54:15;99110.22;;;15.86;65.96
6020;BME280;3038;51.122;6.840;2024-03-29T12:56:40;99112.66;;;16.11;64.80
6020;BME280;3038;51.122;6.840;2024-03-29T12:59:07;99112.81;;;16.33;64.14
6020;BME280;3038;51.122;6.840;2024-03-29T13:01:32;99104.28;;;16.48;63.63
6020;BME280;3038;51.122;6.840;2024-03-29T13:03:58;99091.56;;;16.55;62.79
6020;BME280;3038;51.122;6.840;2024-03-29T13:06:23;99100.59;;;16.77;61.96
6020;BME280;3038;51.122;6.840;2024-03-29T13:08:48;99098.84;;;17.00;61.94
6020;BME280;3038;51.122;6.840;2024-03-29T13:11:15;99093.75;;;16.98;61.83
6020;BME280;3038;51.122;6.840;2024-03-29T13:13:40;99098.19;;;16.92;60.98
6020;BME280;3038;51.122;6.840;2024-03-29T13:16:06;99097.53;;;16.85;59.68
6020;BME280;3038;51.122;6.840;2024-03-29T13:18:31;99096.59;;;17.08;59.86
6020;BME280;3038;51.122;6.840;2024-03-29T13:20:56;99105.81;;;16.84;58.16
6020;BME280;3038;51.122;6.840;2024-03-29T13:23:24;99121.28;;;16.93;58.36
6020;BME280;3038;51.122;6.840;2024-03-29T13:25:50;99116.94;;;17.38;56.89
6020;BME280;3038;51.122;6.840;2024-03-29T13:28:18;99115.06;;;20.47;50.10
6020;BME280;3038;51.122;6.840;2024-03-29T13:30:43;99108.50;;;21.72;45.77